sensor_id;sensor_type;location;lat;lon;timestamp;P1;durP1;ratioP1;P2;durP2;ratioP2
76039;SDS011;64736;50.462;4.850;2024-02-14T00:00:11;8.20;;;2.25;;
76039;SDS011;64736;50.462;4.850;2024-02-14T00:02:41;7.13;;;2.80;;
76039;SDS011;64736;50.462;4.850;2024-02-14T00:05:09;3.92;;;1.95;;
76039;SDS011;64736;50.462;4.850;2024-02-14T00:07:38;4.47;;;2.22;;
76039;SDS011;64736;50.462;4.850;2024-02-14T00:10:08;4.75;;;2.42;;
76039;SDS011;64736;50.462;4.850;2024-02-14T00:12:34;6.10;;;2.53;;
76039;SDS011;64736;50.462;4.850;2024-02-14T00:15:04;5.97;;;1.85;;
76039;SDS011;64736;50.462;4.850;2024-02-14T00:17:33;4.85;;;2.28;;
76039;SDS011;64736;50.462;4.850;2024-02-14T00:20:00;5.28;;;2.33;;
76039;SDS011;64736;50.462;4.850;2024-02-14T00:22:26;5.10;;;2.50;;
76039;SDS011;64736;50.462;4.850;2024-02-14T00:24:52;5.43;;;2.50;;
76039;SDS011;64736;50.462;4.850;2024-02-14T00:27:18;6.90;;;2.65;;
76039;SDS011;64736;50.462;4.850;2024-02-14T00:29:44;5.28;;;2.20;;
76039;SDS011;64736;50.462;4.850;2024-02-14T00:32:15;4.40;;;2.15;;
76039;SDS011;64736;50.462;4.850;2024-02-14T00:34:40;6.10;;;2.25;;
76039;SDS011;64736;50.462;4.850;2024-02-14T00:37:06;4.78;;;2.30;;
76039;SDS011;64736;50.462;4.850;2024-02-14T00:39:32;6.25;;;2.28;;
76039;SDS011;64736;50.462;4.850;2024-02-14T00:41:58;4.57;;;2.20;;
76039;SDS011;64736;50.462;4.850;2024-02-14T00:44:24;5.80;;;2.42;;
76039;SDS011;64736;50.462;4.850;2024-02-14T00:46:55;5.10;;;2.50;;
76039;SDS011;64736;50.462;4.850;2024-02-14T00:49:25;6.55;;;2.13;;
76039;SDS011;64736;50.462;4.850;2024-02-14T00:51:51;6.22;;;2.28;;
76039;SDS011;64736;50.462;4.850;2024-02-14T00:54:17;4.20;;;2.20;;
76039;SDS011;64736;50.462;4.850;2024-02-14T00:56:43;6.15;;;2.65;;
76039;SDS011;64736;50.462;4.850;2024-02-14T00:59:09;4.93;;;2.53;;
76039;SDS011;64736;50.462;4.850;2024-02-14T01:01:35;5.22;;;2.58;;
76039;SDS011;64736;50.462;4.850;2024-02-14T01:04:01;5.82;;;2.40;;
76039;SDS011;64736;50.462;4.850;2024-02-14T01:06:29;5.18;;;2.72;;
76039;SDS011;64736;50.462;4.850;2024-02-14T01:08:56;4.55;;;2.15;;
76039;SDS011;64736;50.462;4.850;2024-02-14T01:11:21;5.85;;;3.15;;
76039;SDS011;64736;50.462;4.850;2024-02-14T01:13:47;6.47;;;2.10;;
76039;SDS011;64736;50.462;4.850;2024-02-14T01:16:13;7.03;;;2.50;;
76039;SDS011;64736;50.462;4.850;2024-02-14T01:18:39;5.28;;;2.42;;
76039;SDS011;64736;50.462;4.850;2024-02-14T01:21:05;5.50;;;2.78;;
76039;SDS011;64736;50.462;4.850;2024-02-14T01:23:32;4.30;;;2.33;;
76039;SDS011;64736;50.462;4.850;2024-02-14T01:25:58;5.93;;;2.88;;
76039;SDS011;64736;50.462;4.850;2024-02-14T01:28:23;5.22;;;2.67;;
76039;SDS011;64736;50.462;4.850;2024-02-14T01:30:49;5.20;;;2.55;;
76039;SDS011;64736;50.462;4.850;2024-02-14T01:33:16;6.93;;;3.10;;
76039;SDS011;64736;50.462;4.850;2024-02-14T01:35:42;5.80;;;2.50;;
76039;SDS011;64736;50.462;4.850;2024-02-14T01:38:08;5.57;;;2.70;;
76039;SDS011;64736;50.462;4.850;2024-02-14T01:40:34;5.47;;;2.55;;
76039;SDS011;64736;50.462;4.850;2024-02-14T01:42:59;4.85;;;2.50;;
76039;SDS011;64736;50.462;4.850;2024-02-14T01:45:26;7.57;;;2.67;;
76039;SDS011;64736;50.462;4.850;2024-02-14T01:47:52;5.90;;;2.88;;
76039;SDS011;64736;50.462;4.850;2024-02-14T01:50:18;5.65;;;2.83;;
76039;SDS011;64736;50.462;4.850;2024-02-14T01:52:54;6.45;;;3.20;;
76039;SDS011;64736;50.462;4.850;2024-02-14T01:55:22;6.18;;;3.08;;
76039;SDS011;64736;50.462;4.850;2024-02-14T01:57:48;5.03;;;2.60;;
76039;SDS011;64736;50.462;4.850;2024-02-14T02:00:14;4.53;;;2.53;;
76039;SDS011;64736;50.462;4.850;2024-02-14T02:02:43;5.00;;;2.45;;
76039;SDS011;64736;50.462;4.850;2024-02-14T02:05:09;5.72;;;2.50;;
76039;SDS011;64736;50.462;4.850;2024-02-14T02:07:35;6.80;;;3.00;;
76039;SDS011;64736;50.462;4.850;2024-02-14T02:10:05;5.35;;;2.90;;
76039;SDS011;64736;50.462;4.850;2024-02-14T02:12:31;6.90;;;3.20;;
76039;SDS011;64736;50.462;4.850;2024-02-14T02:14:57;6.22;;;3.42;;
76039;SDS011;64736;50.462;4.850;2024-02-14T02:17:24;5.88;;;3.42;;
76039;SDS011;64736;50.462;4.850;2024-02-14T02:19:49;7.75;;;4.00;;
76039;SDS011;64736;50.462;4.850;2024-02-14T02:22:19;7.15;;;3.25;;
76039;SDS011;64736;50.462;4.850;2024-02-14T02:24:45;8.23;;;3.78;;
76039;SDS011;64736;50.462;4.850;2024-02-14T02:27:11;6.20;;;3.40;;
76039;SDS011;64736;50.462;4.850;2024-02-14T02:29:39;7.38;;;3.47;;
76039;SDS011;64736;50.462;4.850;2024-02-14T02:32:04;5.40;;;3.40;;
76039;SDS011;64736;50.462;4.850;2024-02-14T02:34:31;7.88;;;3.67;;
76039;SDS011;64736;50.462;4.850;2024-02-14T02:36:57;6.60;;;3.50;;
76039;SDS011;64736;50.462;4.850;2024-02-14T02:39:23;5.50;;;2.92;;
76039;SDS011;64736;50.462;4.850;2024-02-14T02:41:48;5.60;;;3.08;;
76039;SDS011;64736;50.462;4.850;2024-02-14T02:44:15;8.32;;;3.92;;
76039;SDS011;64736;50.462;4.850;2024-02-14T02:46:40;6.45;;;2.90;;
76039;SDS011;64736;50.462;4.850;2024-02-14T02:49:06;5.45;;;3.35;;
76039;SDS011;64736;50.462;4.850;2024-02-14T02:51:32;5.82;;;2.80;;
76039;SDS011;64736;50.462;4.850;2024-02-14T02:53:58;5.78;;;3.10;;
76039;SDS011;64736;50.462;4.850;2024-02-14T02:56:24;6.50;;;2.90;;
76039;SDS011;64736;50.462;4.850;2024-02-14T02:58:54;6.27;;;3.10;;
76039;SDS011;64736;50.462;4.850;2024-02-14T03:01:20;7.60;;;2.85;;
76039;SDS011;64736;50.462;4.850;2024-02-14T03:03:49;6.43;;;3.28;;
76039;SDS011;64736;50.462;4.850;2024-02-14T03:06:15;5.63;;;2.90;;
76039;SDS011;64736;50.462;4.850;2024-02-14T03:08:41;6.28;;;2.88;;
76039;SDS011;64736;50.462;4.850;2024-02-14T03:11:07;5.57;;;3.10;;
76039;SDS011;64736;50.462;4.850;2024-02-14T03:13:32;5.70;;;3.42;;
76039;SDS011;64736;50.462;4.850;2024-02-14T03:15:59;6.13;;;2.83;;
76039;SDS011;64736;50.462;4.850;2024-02-14T03:18:25;8.43;;;3.42;;
76039;SDS011;64736;50.462;4.850;2024-02-14T03:20:51;6.45;;;3.30;;
76039;SDS011;64736;50.462;4.850;2024-02-14T03:23:19;7.88;;;3.22;;
76039;SDS011;64736;50.462;4.850;2024-02-14T03:25:45;6.30;;;3.22;;
76039;SDS011;64736;50.462;4.850;2024-02-14T03:28:10;5.60;;;2.97;;
76039;SDS011;64736;50.462;4.850;2024-02-14T03:30:38;6.55;;;3.50;;
76039;SDS011;64736;50.462;4.850;2024-02-14T03:33:04;5.00;;;2.88;;
76039;SDS011;64736;50.462;4.850;2024-02-14T03:35:33;10.37;;;3.33;;
76039;SDS011;64736;50.462;4.850;2024-02-14T03:38:02;7.90;;;4.35;;
76039;SDS011;64736;50.462;4.850;2024-02-14T03:42:55;6.80;;;3.25;;
76039;SDS011;64736;50.462;4.850;2024-02-14T03:45:22;7.70;;;3.70;;
76039;SDS011;64736;50.462;4.850;2024-02-14T03:47:48;8.23;;;4.22;;
76039;SDS011;64736;50.462;4.850;2024-02-14T03:50:13;6.57;;;3.90;;
76039;SDS011;64736;50.462;4.850;2024-02-14T03:52:40;6.13;;;3.42;;
76039;SDS011;64736;50.462;4.850;2024-02-14T03:55:07;7.15;;;3.53;;
76039;SDS011;64736;50.462;4.850;2024-02-14T03:57:39;8.52;;;4.00;;
76039;SDS011;64736;50.462;4.850;2024-02-14T04:00:05;7.60;;;3.80;;
76039;SDS011;64736;50.462;4.850;2024-02-14T04:02:35;7.13;;;3.72;;
76039;SDS011;64736;50.462;4.850;2024-02-14T04:05:01;8.82;;;4.00;;
76039;SDS011;64736;50.462;4.850;2024-02-14T04:07:27;8.35;;;4.00;;
76039;SDS011;64736;50.462;4.850;2024-02-14T04:09:55;6.32;;;3.78;;
76039;SDS011;64736;50.462;4.850;2024-02-14T04:12:21;8.52;;;4.55;;
76039;SDS011;64736;50.462;4.850;2024-02-14T04:14:47;9.40;;;5.10;;
76039;SDS011;64736;50.462;4.850;2024-02-14T04:17:13;9.50;;;4.93;;
76039;SDS011;64736;50.462;4.850;2024-02-14T04:19:39;5.55;;;3.15;;
76039;SDS011;64736;50.462;4.850;2024-02-14T04:22:05;8.00;;;4.53;;
76039;SDS011;64736;50.462;4.850;2024-02-14T04:24:35;9.07;;;4.82;;
76039;SDS011;64736;50.462;4.850;2024-02-14T04:27:01;7.72;;;4.50;;
76039;SDS011;64736;50.462;4.850;2024-02-14T04:29:30;7.28;;;4.25;;
76039;SDS011;64736;50.462;4.850;2024-02-14T04:31:59;8.00;;;4.67;;
76039;SDS011;64736;50.462;4.850;2024-02-14T04:34:25;9.50;;;5.28;;
76039;SDS011;64736;50.462;4.850;2024-02-14T04:36:51;8.27;;;4.70;;
76039;SDS011;64736;50.462;4.850;2024-02-14T04:39:17;8.65;;;4.63;;
76039;SDS011;64736;50.462;4.850;2024-02-14T04:41:43;7.32;;;4.07;;
76039;SDS011;64736;50.462;4.850;2024-02-14T04:44:09;8.68;;;4.20;;
76039;SDS011;64736;50.462;4.850;2024-02-14T04:46:34;8.38;;;4.55;;
76039;SDS011;64736;50.462;4.850;2024-02-14T04:49:01;7.65;;;4.45;;
76039;SDS011;64736;50.462;4.850;2024-02-14T04:51:30;8.93;;;4.50;;
76039;SDS011;64736;50.462;4.850;2024-02-14T04:53:57;9.13;;;4.50;;
76039;SDS011;64736;50.462;4.850;2024-02-14T04:56:26;8.23;;;4.43;;
76039;SDS011;64736;50.462;4.850;2024-02-14T04:58:53;11.05;;;4.65;;
76039;SDS011;64736;50.462;4.850;2024-02-14T05:01:20;7.78;;;4.40;;
76039;SDS011;64736;50.462;4.850;2024-02-14T05:03:46;7.05;;;3.75;;
76039;SDS011;64736;50.462;4.850;2024-02-14T05:06:11;8.13;;;4.07;;
76039;SDS011;64736;50.462;4.850;2024-02-14T05:08:37;7.32;;;3.75;;
76039;SDS011;64736;50.462;4.850;2024-02-14T05:11:03;8.68;;;4.65;;
76039;SDS011;64736;50.462;4.850;2024-02-14T05:13:30;8.55;;;3.78;;
76039;SDS011;64736;50.462;4.850;2024-02-14T05:15:56;9.35;;;4.80;;
76039;SDS011;64736;50.462;4.850;2024-02-14T05:18:22;8.82;;;4.80;;
76039;SDS011;64736;50.462;4.850;2024-02-14T05:20:47;7.50;;;4.13;;
76039;SDS011;64736;50.462;4.850;2024-02-14T05:23:14;7.63;;;3.97;;
76039;SDS011;64736;50.462;4.850;2024-02-14T05:25:43;7.37;;;4.33;;
76039;SDS011;64736;50.462;4.850;2024-02-14T05:28:09;8.32;;;4.70;;
76039;SDS011;64736;50.462;4.850;2024-02-14T05:30:42;7.53;;;4.60;;
76039;SDS011;64736;50.462;4.850;2024-02-14T05:33:08;7.68;;;4.57;;
76039;SDS011;64736;50.462;4.850;2024-02-14T05:35:33;8.40;;;4.50;;
76039;SDS011;64736;50.462;4.850;2024-02-14T05:37:59;10.77;;;4.60;;
76039;SDS011;64736;50.462;4.850;2024-02-14T05:40:25;7.28;;;4.10;;
76039;SDS011;64736;50.462;4.850;2024-02-14T05:42:51;7.50;;;4.38;;
76039;SDS011;64736;50.462;4.850;2024-02-14T05:45:17;6.88;;;3.67;;
76039;SDS011;64736;50.462;4.850;2024-02-14T05:47:43;7.15;;;3.67;;
76039;SDS011;64736;50.462;4.850;2024-02-14T05:50:09;6.55;;;4.40;;
76039;SDS011;64736;50.462;4.850;2024-02-14T05:52:37;7.07;;;3.95;;
76039;SDS011;64736;50.462;4.850;2024-02-14T05:55:03;7.03;;;3.90;;
76039;SDS011;64736;50.462;4.850;2024-02-14T05:57:29;6.50;;;3.92;;
76039;SDS011;64736;50.462;4.850;2024-02-14T05:59:55;6.55;;;3.65;;
76039;SDS011;64736;50.462;4.850;2024-02-14T06:02:20;8.00;;;3.53;;
76039;SDS011;64736;50.462;4.850;2024-02-14T06:04:46;6.40;;;4.00;;
76039;SDS011;64736;50.462;4.850;2024-02-14T06:07:12;7.38;;;3.65;;
76039;SDS011;64736;50.462;4.850;2024-02-14T06:09:38;8.88;;;4.40;;
76039;SDS011;64736;50.462;4.850;2024-02-14T06:12:04;7.07;;;3.97;;
76039;SDS011;64736;50.462;4.850;2024-02-14T06:14:30;8.32;;;4.25;;
76039;SDS011;64736;50.462;4.850;2024-02-14T06:16:59;7.22;;;3.50;;
76039;SDS011;64736;50.462;4.850;2024-02-14T06:19:26;5.85;;;3.28;;
76039;SDS011;64736;50.462;4.850;2024-02-14T06:21:52;7.28;;;3.72;;
76039;SDS011;64736;50.462;4.850;2024-02-14T06:24:18;6.38;;;3.58;;
76039;SDS011;64736;50.462;4.850;2024-02-14T06:26:44;7.60;;;4.15;;
76039;SDS011;64736;50.462;4.850;2024-02-14T06:29:10;6.97;;;3.28;;
76039;SDS011;64736;50.462;4.850;2024-02-14T06:31:36;7.88;;;4.13;;
76039;SDS011;64736;50.462;4.850;2024-02-14T06:34:02;7.13;;;3.53;;
76039;SDS011;64736;50.462;4.850;2024-02-14T06:36:28;6.82;;;3.42;;
76039;SDS011;64736;50.462;4.850;2024-02-14T06:38:53;8.32;;;4.43;;
76039;SDS011;64736;50.462;4.850;2024-02-14T06:41:19;8.63;;;3.83;;
76039;SDS011;64736;50.462;4.850;2024-02-14T06:43:48;9.00;;;3.88;;
76039;SDS011;64736;50.462;4.850;2024-02-14T06:46:14;8.13;;;3.85;;
76039;SDS011;64736;50.462;4.850;2024-02-14T06:48:40;10.35;;;4.45;;
76039;SDS011;64736;50.462;4.850;2024-02-14T06:51:06;8.68;;;4.30;;
76039;SDS011;64736;50.462;4.850;2024-02-14T06:53:32;9.20;;;4.28;;
76039;SDS011;64736;50.462;4.850;2024-02-14T06:55:58;6.90;;;3.90;;
76039;SDS011;64736;50.462;4.850;2024-02-14T06:58:23;8.27;;;4.85;;
76039;SDS011;64736;50.462;4.850;2024-02-14T07:00:49;9.90;;;5.60;;
76039;SDS011;64736;50.462;4.850;2024-02-14T07:03:15;8.48;;;4.80;;
76039;SDS011;64736;50.462;4.850;2024-02-14T07:05:41;8.98;;;5.70;;
76039;SDS011;64736;50.462;4.850;2024-02-14T07:08:07;9.18;;;4.10;;
76039;SDS011;64736;50.462;4.850;2024-02-14T07:10:33;10.73;;;4.57;;
76039;SDS011;64736;50.462;4.850;2024-02-14T07:12:59;7.10;;;4.30;;
76039;SDS011;64736;50.462;4.850;2024-02-14T07:15:24;8.00;;;4.22;;
76039;SDS011;64736;50.462;4.850;2024-02-14T07:17:56;8.63;;;4.18;;
76039;SDS011;64736;50.462;4.850;2024-02-14T07:20:23;7.72;;;3.90;;
76039;SDS011;64736;50.462;4.850;2024-02-14T07:22:52;8.02;;;3.95;;
76039;SDS011;64736;50.462;4.850;2024-02-14T07:25:22;10.43;;;3.47;;
76039;SDS011;64736;50.462;4.850;2024-02-14T07:27:48;7.15;;;3.95;;
76039;SDS011;64736;50.462;4.850;2024-02-14T07:30:18;7.40;;;3.78;;
76039;SDS011;64736;50.462;4.850;2024-02-14T07:32:44;6.90;;;3.60;;
76039;SDS011;64736;50.462;4.850;2024-02-14T07:35:10;6.80;;;3.33;;
76039;SDS011;64736;50.462;4.850;2024-02-14T07:37:36;6.53;;;3.30;;
76039;SDS011;64736;50.462;4.850;2024-02-14T07:40:02;6.82;;;3.17;;
76039;SDS011;64736;50.462;4.850;2024-02-14T07:42:28;7.20;;;3.50;;
76039;SDS011;64736;50.462;4.850;2024-02-14T07:44:54;6.30;;;3.45;;
76039;SDS011;64736;50.462;4.850;2024-02-14T07:47:21;5.65;;;3.20;;
76039;SDS011;64736;50.462;4.850;2024-02-14T07:49:48;6.05;;;3.10;;
76039;SDS011;64736;50.462;4.850;2024-02-14T07:52:14;6.47;;;3.55;;
76039;SDS011;64736;50.462;4.850;2024-02-14T07:54:39;7.18;;;3.00;;
76039;SDS011;64736;50.462;4.850;2024-02-14T07:57:06;7.68;;;3.67;;
76039;SDS011;64736;50.462;4.850;2024-02-14T07:59:32;8.20;;;3.58;;
76039;SDS011;64736;50.462;4.850;2024-02-14T08:01:57;6.75;;;2.78;;
76039;SDS011;64736;50.462;4.850;2024-02-14T08:04:24;7.32;;;3.05;;
76039;SDS011;64736;50.462;4.850;2024-02-14T08:06:49;6.55;;;3.28;;
76039;SDS011;64736;50.462;4.850;2024-02-14T08:09:15;7.03;;;4.22;;
76039;SDS011;64736;50.462;4.850;2024-02-14T08:11:41;7.57;;;3.33;;
76039;SDS011;64736;50.462;4.850;2024-02-14T08:14:07;7.82;;;3.90;;
76039;SDS011;64736;50.462;4.850;2024-02-14T08:16:32;7.47;;;3.10;;
76039;SDS011;64736;50.462;4.850;2024-02-14T08:18:58;6.00;;;3.22;;
76039;SDS011;64736;50.462;4.850;2024-02-14T08:21:25;6.93;;;3.47;;
76039;SDS011;64736;50.462;4.850;2024-02-14T08:23:52;7.13;;;3.45;;
76039;SDS011;64736;50.462;4.850;2024-02-14T08:26:21;5.50;;;2.78;;
76039;SDS011;64736;50.462;4.850;2024-02-14T08:28:48;7.43;;;3.88;;
76039;SDS011;64736;50.462;4.850;2024-02-14T08:31:14;5.78;;;3.33;;
76039;SDS011;64736;50.462;4.850;2024-02-14T08:33:40;6.63;;;3.35;;
76039;SDS011;64736;50.462;4.850;2024-02-14T08:36:06;6.68;;;3.55;;
76039;SDS011;64736;50.462;4.850;2024-02-14T08:38:32;6.50;;;3.22;;
76039;SDS011;64736;50.462;4.850;2024-02-14T08:41:02;7.97;;;3.80;;
76039;SDS011;64736;50.462;4.850;2024-02-14T08:43:29;7.70;;;4.32;;
76039;SDS011;64736;50.462;4.850;2024-02-14T08:45:55;8.25;;;4.20;;
76039;SDS011;64736;50.462;4.850;2024-02-14T08:48:21;8.45;;;4.15;;
76039;SDS011;64736;50.462;4.850;2024-02-14T08:50:47;6.63;;;3.55;;
76039;SDS011;64736;50.462;4.850;2024-02-14T08:53:13;8.88;;;4.65;;
76039;SDS011;64736;50.462;4.850;2024-02-14T08:55:39;6.30;;;3.47;;
76039;SDS011;64736;50.462;4.850;2024-02-14T08:58:06;6.57;;;3.65;;
76039;SDS011;64736;50.462;4.850;2024-02-14T09:00:32;7.63;;;3.90;;
76039;SDS011;64736;50.462;4.850;2024-02-14T09:03:01;6.57;;;3.63;;
76039;SDS011;64736;50.462;4.850;2024-02-14T09:05:28;7.93;;;3.90;;
76039;SDS011;64736;50.462;4.850;2024-02-14T09:07:54;7.10;;;3.88;;
76039;SDS011;64736;50.462;4.850;2024-02-14T09:10:20;7.15;;;3.80;;
76039;SDS011;64736;50.462;4.850;2024-02-14T09:12:46;7.25;;;3.75;;
76039;SDS011;64736;50.462;4.850;2024-02-14T09:15:13;7.13;;;3.38;;
76039;SDS011;64736;50.462;4.850;2024-02-14T09:17:39;6.28;;;3.15;;
76039;SDS011;64736;50.462;4.850;2024-02-14T09:20:09;6.10;;;3.55;;
76039;SDS011;64736;50.462;4.850;2024-02-14T09:22:36;7.40;;;3.55;;
76039;SDS011;64736;50.462;4.850;2024-02-14T09:25:02;5.55;;;2.80;;
76039;SDS011;64736;50.462;4.850;2024-02-14T09:27:31;6.78;;;2.88;;
76039;SDS011;64736;50.462;4.850;2024-02-14T09:29:58;6.57;;;2.90;;
76039;SDS011;64736;50.462;4.850;2024-02-14T09:32:24;5.88;;;2.40;;
76039;SDS011;64736;50.462;4.850;2024-02-14T09:34:50;7.65;;;2.45;;
76039;SDS011;64736;50.462;4.850;2024-02-14T09:37:16;6.28;;;2.42;;
76039;SDS011;64736;50.462;4.850;2024-02-14T09:39:42;7.78;;;2.70;;
76039;SDS011;64736;50.462;4.850;2024-02-14T09:42:11;5.07;;;2.10;;
76039;SDS011;64736;50.462;4.850;2024-02-14T09:44:41;4.40;;;1.92;;
76039;SDS011;64736;50.462;4.850;2024-02-14T09:47:09;6.20;;;2.55;;
76039;SDS011;64736;50.462;4.850;2024-02-14T09:49:35;7.85;;;3.67;;
76039;SDS011;64736;50.462;4.850;2024-02-14T09:52:02;5.40;;;2.10;;
76039;SDS011;64736;50.462;4.850;2024-02-14T09:54:28;5.00;;;2.35;;
76039;SDS011;64736;50.462;4.850;2024-02-14T09:56:56;4.55;;;2.03;;
76039;SDS011;64736;50.462;4.850;2024-02-14T09:59:23;4.95;;;2.38;;
76039;SDS011;64736;50.462;4.850;2024-02-14T10:01:49;5.13;;;2.05;;
76039;SDS011;64736;50.462;4.850;2024-02-14T10:04:17;5.28;;;2.08;;
76039;SDS011;64736;50.462;4.850;2024-02-14T10:06:44;5.40;;;2.25;;
76039;SDS011;64736;50.462;4.850;2024-02-14T10:09:10;6.97;;;2.40;;
76039;SDS011;64736;50.462;4.850;2024-02-14T10:11:37;6.70;;;3.20;;
76039;SDS011;64736;50.462;4.850;2024-02-14T10:14:05;4.50;;;1.95;;
76039;SDS011;64736;50.462;4.850;2024-02-14T10:16:35;6.68;;;3.10;;
76039;SDS011;64736;50.462;4.850;2024-02-14T10:19:01;5.53;;;2.88;;
76039;SDS011;64736;50.462;4.850;2024-02-14T10:21:29;5.50;;;2.65;;
76039;SDS011;64736;50.462;4.850;2024-02-14T10:24:01;4.50;;;2.05;;
76039;SDS011;64736;50.462;4.850;2024-02-14T10:26:30;6.03;;;2.50;;
76039;SDS011;64736;50.462;4.850;2024-02-14T10:28:57;4.45;;;1.88;;
76039;SDS011;64736;50.462;4.850;2024-02-14T10:31:24;4.50;;;1.90;;
76039;SDS011;64736;50.462;4.850;2024-02-14T10:33:52;7.57;;;3.40;;
76039;SDS011;64736;50.462;4.850;2024-02-14T10:36:19;4.90;;;1.88;;
76039;SDS011;64736;50.462;4.850;2024-02-14T10:38:46;5.43;;;2.25;;
76039;SDS011;64736;50.462;4.850;2024-02-14T10:41:15;4.30;;;2.20;;
76039;SDS011;64736;50.462;4.850;2024-02-14T10:43:42;6.50;;;3.15;;
76039;SDS011;64736;50.462;4.850;2024-02-14T10:46:20;6.40;;;2.78;;
76039;SDS011;64736;50.462;4.850;2024-02-14T10:48:47;9.73;;;2.65;;
76039;SDS011;64736;50.462;4.850;2024-02-14T10:51:15;5.97;;;2.95;;
76039;SDS011;64736;50.462;4.850;2024-02-14T10:53:44;6.60;;;3.20;;
76039;SDS011;64736;50.462;4.850;2024-02-14T10:56:17;5.15;;;2.13;;
76039;SDS011;64736;50.462;4.850;2024-02-14T10:58:48;5.38;;;2.95;;
76039;SDS011;64736;50.462;4.850;2024-02-14T11:01:14;4.10;;;1.80;;
76039;SDS011;64736;50.462;4.850;2024-02-14T11:03:44;4.10;;;1.77;;
76039;SDS011;64736;50.462;4.850;2024-02-14T11:06:14;3.20;;;1.33;;
76039;SDS011;64736;50.462;4.850;2024-02-14T11:08:42;3.15;;;1.25;;
76039;SDS011;64736;50.462;4.850;2024-02-14T11:11:19;3.15;;;1.10;;
76039;SDS011;64736;50.462;4.850;2024-02-14T11:13:44;3.00;;;1.23;;
76039;SDS011;64736;50.462;4.850;2024-02-14T11:16:10;2.75;;;1.02;;
76039;SDS011;64736;50.462;4.850;2024-02-14T11:21:15;3.78;;;1.55;;
76039;SDS011;64736;50.462;4.850;2024-02-14T11:23:52;3.70;;;1.80;;
76039;SDS011;64736;50.462;4.850;2024-02-14T11:26:19;3.22;;;1.33;;
76039;SDS011;64736;50.462;4.850;2024-02-14T11:28:45;3.47;;;1.25;;
76039;SDS011;64736;50.462;4.850;2024-02-14T11:31:16;2.33;;;1.05;;
76039;SDS011;64736;50.462;4.850;2024-02-14T11:33:42;2.63;;;1.15;;
76039;SDS011;64736;50.462;4.850;2024-02-14T11:36:11;2.65;;;1.15;;
76039;SDS011;64736;50.462;4.850;2024-02-14T11:38:40;3.53;;;1.30;;
76039;SDS011;64736;50.462;4.850;2024-02-14T11:41:06;2.92;;;1.13;;
76039;SDS011;64736;50.462;4.850;2024-02-14T11:43:32;2.42;;;1.15;;
76039;SDS011;64736;50.462;4.850;2024-02-14T11:45:58;2.17;;;0.90;;
76039;SDS011;64736;50.462;4.850;2024-02-14T11:48:23;2.50;;;1.10;;
76039;SDS011;64736;50.462;4.850;2024-02-14T11:50:50;2.80;;;1.08;;
76039;SDS011;64736;50.462;4.850;2024-02-14T11:53:17;2.90;;;1.27;;
76039;SDS011;64736;50.462;4.850;2024-02-14T11:55:44;2.10;;;1.00;;
76039;SDS011;64736;50.462;4.850;2024-02-14T11:58:13;2.83;;;0.93;;
76039;SDS011;64736;50.462;4.850;2024-02-14T12:00:43;2.78;;;1.27;;
76039;SDS011;64736;50.462;4.850;2024-02-14T12:03:11;2.95;;;1.15;;
76039;SDS011;64736;50.462;4.850;2024-02-14T12:05:38;3.65;;;2.00;;
76039;SDS011;64736;50.462;4.850;2024-02-14T12:08:09;3.13;;;1.45;;
76039;SDS011;64736;50.462;4.850;2024-02-14T12:10:36;3.05;;;1.27;;
76039;SDS011;64736;50.462;4.850;2024-02-14T12:15:38;2.97;;;1.20;;
76039;SDS011;64736;50.462;4.850;2024-02-14T12:18:05;3.85;;;1.40;;
76039;SDS011;64736;50.462;4.850;2024-02-14T12:20:31;3.38;;;1.40;;
76039;SDS011;64736;50.462;4.850;2024-02-14T12:22:58;3.97;;;1.50;;
76039;SDS011;64736;50.462;4.850;2024-02-14T12:25:25;4.50;;;1.52;;
76039;SDS011;64736;50.462;4.850;2024-02-14T12:27:52;4.53;;;1.60;;
76039;SDS011;64736;50.462;4.850;2024-02-14T12:30:18;4.85;;;1.35;;
76039;SDS011;64736;50.462;4.850;2024-02-14T12:32:45;3.72;;;1.60;;
76039;SDS011;64736;50.462;4.850;2024-02-14T12:35:11;3.47;;;1.33;;
76039;SDS011;64736;50.462;4.850;2024-02-14T12:37:37;3.30;;;1.67;;
76039;SDS011;64736;50.462;4.850;2024-02-14T12:40:03;3.90;;;1.60;;
76039;SDS011;64736;50.462;4.850;2024-02-14T12:42:31;4.45;;;1.73;;
76039;SDS011;64736;50.462;4.850;2024-02-14T12:44:57;3.90;;;1.70;;
76039;SDS011;64736;50.462;4.850;2024-02-14T12:47:23;4.85;;;1.90;;
76039;SDS011;64736;50.462;4.850;2024-02-14T12:49:50;4.47;;;1.95;;
76039;SDS011;64736;50.462;4.850;2024-02-14T12:52:16;4.50;;;2.05;;
76039;SDS011;64736;50.462;4.850;2024-02-14T12:54:43;5.82;;;2.13;;
76039;SDS011;64736;50.462;4.850;2024-02-14T12:57:09;4.93;;;2.28;;
76039;SDS011;64736;50.462;4.850;2024-02-14T12:59:34;5.57;;;2.42;;
76039;SDS011;64736;50.462;4.850;2024-02-14T13:02:00;5.65;;;2.10;;
76039;SDS011;64736;50.462;4.850;2024-02-14T13:06:59;5.20;;;2.50;;
76039;SDS011;64736;50.462;4.850;2024-02-14T13:09:25;4.95;;;1.98;;
76039;SDS011;64736;50.462;4.850;2024-02-14T13:11:51;5.20;;;2.38;;
76039;SDS011;64736;50.462;4.850;2024-02-14T13:14:17;5.90;;;2.42;;
76039;SDS011;64736;50.462;4.850;2024-02-14T13:16:43;5.55;;;2.50;;
76039;SDS011;64736;50.462;4.850;2024-02-14T13:19:09;4.75;;;2.63;;
76039;SDS011;64736;50.462;4.850;2024-02-14T13:21:34;7.45;;;2.55;;
76039;SDS011;64736;50.462;4.850;2024-02-14T13:24:00;8.30;;;2.85;;
76039;SDS011;64736;50.462;4.850;2024-02-14T13:26:26;5.07;;;2.42;;
76039;SDS011;64736;50.462;4.850;2024-02-14T13:28:53;5.88;;;2.65;;
76039;SDS011;64736;50.462;4.850;2024-02-14T13:31:20;4.93;;;2.55;;
76039;SDS011;64736;50.462;4.850;2024-02-14T13:33:45;7.03;;;3.00;;
76039;SDS011;64736;50.462;4.850;2024-02-14T13:36:11;6.65;;;2.53;;
76039;SDS011;64736;50.462;4.850;2024-02-14T13:38:36;5.90;;;2.70;;
76039;SDS011;64736;50.462;4.850;2024-02-14T13:41:03;5.53;;;2.70;;
76039;SDS011;64736;50.462;4.850;2024-02-14T13:43:29;5.80;;;3.10;;
76039;SDS011;64736;50.462;4.850;2024-02-14T13:45:55;5.90;;;2.90;;
76039;SDS011;64736;50.462;4.850;2024-02-14T13:48:21;7.38;;;2.63;;
76039;SDS011;64736;50.462;4.850;2024-02-14T13:50:46;5.72;;;2.83;;
76039;SDS011;64736;50.462;4.850;2024-02-14T13:53:15;7.97;;;3.10;;
76039;SDS011;64736;50.462;4.850;2024-02-14T13:55:42;5.82;;;2.78;;
76039;SDS011;64736;50.462;4.850;2024-02-14T13:58:08;8.07;;;3.17;;
76039;SDS011;64736;50.462;4.850;2024-02-14T14:00:39;6.72;;;3.05;;
76039;SDS011;64736;50.462;4.850;2024-02-14T14:03:05;7.68;;;2.60;;
76039;SDS011;64736;50.462;4.850;2024-02-14T14:05:31;5.40;;;2.67;;
76039;SDS011;64736;50.462;4.850;2024-02-14T14:07:56;4.90;;;2.38;;
76039;SDS011;64736;50.462;4.850;2024-02-14T14:10:25;6.38;;;2.88;;
76039;SDS011;64736;50.462;4.850;2024-02-14T14:12:52;5.35;;;2.50;;
76039;SDS011;64736;50.462;4.850;2024-02-14T14:15:17;5.72;;;2.50;;
76039;SDS011;64736;50.462;4.850;2024-02-14T14:17:43;5.20;;;2.47;;
76039;SDS011;64736;50.462;4.850;2024-02-14T14:20:09;5.13;;;2.50;;
76039;SDS011;64736;50.462;4.850;2024-02-14T14:22:35;5.72;;;2.20;;
76039;SDS011;64736;50.462;4.850;2024-02-14T14:25:04;5.60;;;2.60;;
76039;SDS011;64736;50.462;4.850;2024-02-14T14:27:31;5.55;;;2.78;;
76039;SDS011;64736;50.462;4.850;2024-02-14T14:29:57;6.63;;;2.42;;
76039;SDS011;64736;50.462;4.850;2024-02-14T14:32:22;5.63;;;2.20;;
76039;SDS011;64736;50.462;4.850;2024-02-14T14:34:48;6.43;;;2.53;;
76039;SDS011;64736;50.462;4.850;2024-02-14T14:37:14;5.63;;;2.35;;
76039;SDS011;64736;50.462;4.850;2024-02-14T14:39:40;6.38;;;2.45;;
76039;SDS011;64736;50.462;4.850;2024-02-14T14:42:06;5.80;;;2.40;;
76039;SDS011;64736;50.462;4.850;2024-02-14T14:44:33;6.55;;;2.90;;
76039;SDS011;64736;50.462;4.850;2024-02-14T14:46:59;5.82;;;2.50;;
76039;SDS011;64736;50.462;4.850;2024-02-14T14:49:25;5.30;;;2.40;;
76039;SDS011;64736;50.462;4.850;2024-02-14T14:51:51;5.38;;;2.20;;
76039;SDS011;64736;50.462;4.850;2024-02-14T14:54:17;5.80;;;2.75;;